createdAt,value
2022-10-19T00:03:38.351Z,6.30
2022-10-19T00:07:46.542Z,7.60
2022-10-19T00:11:54.976Z,7.50
2022-10-19T00:16:04.212Z,7.20
2022-10-19T00:20:14.994Z,6.80
2022-10-19T00:24:22.878Z,7.50
2022-10-19T00:28:30.994Z,7.80
2022-10-19T00:32:38.820Z,7.90
2022-10-19T00:36:46.934Z,7.60
2022-10-19T00:40:55.061Z,8.50
2022-10-19T00:45:08.312Z,8.60
2022-10-19T00:49:17.877Z,8.90
2022-10-19T00:53:27.962Z,8.80
2022-10-19T00:57:36.558Z,9.10
2022-10-19T01:01:44.919Z,9.70
2022-10-19T01:05:54.043Z,8.90
2022-10-19T01:10:02.512Z,8.60
2022-10-19T01:14:20.275Z,9.80
2022-10-19T01:18:31.842Z,11.20
2022-10-19T01:22:52.298Z,11.50
2022-10-19T01:27:33.077Z,10.60
2022-10-19T01:31:46.278Z,9.60
2022-10-19T01:36:02.705Z,10.10
2022-10-19T01:40:13.378Z,10.70
2022-10-19T01:44:29.510Z,10.70
2022-10-19T01:48:38.988Z,10.50
2022-10-19T01:52:46.566Z,9.80
2022-10-19T01:56:57.665Z,10.00
2022-10-19T02:01:08.621Z,10.00
2022-10-19T02:05:16.468Z,9.80
2022-10-19T02:09:25.105Z,9.70
2022-10-19T02:13:33.656Z,9.50
2022-10-19T02:17:44.167Z,9.40
2022-10-19T02:21:52.118Z,9.30
2022-10-19T02:25:59.812Z,10.80
2022-10-19T02:30:09.203Z,10.00
2022-10-19T02:34:17.217Z,9.80
2022-10-19T02:38:25.539Z,9.30
2022-10-19T02:42:36.974Z,9.70
2022-10-19T02:46:47.875Z,9.70
2022-10-19T02:50:55.931Z,9.80
2022-10-19T02:55:04.032Z,9.50
2022-10-19T02:59:11.548Z,10.00
2022-10-19T03:03:19.395Z,9.70
2022-10-19T03:07:27.217Z,10.50
2022-10-19T03:11:37.997Z,9.80
2022-10-19T03:15:45.578Z,10.30
2022-10-19T03:19:53.928Z,10.60
2022-10-19T03:24:03.030Z,9.20
2022-10-19T03:28:11.237Z,10.50
2022-10-19T03:32:18.698Z,10.90
2022-10-19T03:36:28.839Z,9.90
2022-10-19T03:40:36.942Z,10.70
2022-10-19T03:44:44.740Z,10.90
2022-10-19T03:48:53.365Z,10.50
2022-10-19T03:53:01.028Z,10.10
2022-10-19T03:57:08.625Z,10.30
2022-10-19T04:01:19.184Z,11.30
2022-10-19T04:05:27.148Z,10.50
2022-10-19T04:09:35.372Z,10.60
2022-10-19T04:13:49.635Z,11.30
2022-10-19T04:17:56.873Z,9.30
2022-10-19T04:22:05.184Z,10.20
2022-10-19T04:26:14.458Z,9.20
2022-10-19T04:30:23.429Z,9.10
2022-10-19T04:34:36.355Z,9.10
2022-10-19T04:38:47.639Z,9.70
2022-10-19T04:42:55.575Z,9.30
2022-10-19T04:47:05.489Z,8.80
2022-10-19T04:51:14.449Z,8.50
2022-10-19T04:55:23.615Z,8.80
2022-10-19T04:59:32.291Z,8.50
2022-10-19T05:03:41.519Z,7.50
2022-10-19T05:07:52.199Z,6.70
2022-10-19T05:12:00.212Z,5.90
2022-10-19T05:16:12.593Z,5.70
2022-10-19T05:20:20.374Z,5.70
2022-10-19T05:24:28.526Z,5.90
2022-10-19T05:28:36.962Z,4.90
2022-10-19T05:32:44.583Z,5.00
2022-10-19T05:36:52.726Z,5.20
2022-10-19T05:41:00.301Z,4.40
2022-10-19T05:45:09.231Z,4.70
2022-10-19T05:49:17.989Z,4.50
2022-10-19T05:53:25.761Z,4.30
2022-10-19T05:57:35.377Z,4.50
2022-10-19T06:01:43.746Z,4.70
2022-10-19T06:05:52.712Z,5.10
2022-10-19T06:10:00.394Z,4.60
2022-10-19T06:14:17.916Z,4.60
2022-10-19T06:18:26.235Z,4.40
2022-10-19T06:22:34.334Z,5.10
2022-10-19T06:26:42.004Z,4.60
2022-10-19T06:30:51.697Z,4.70
2022-10-19T06:35:01.597Z,4.40
2022-10-19T06:39:09.397Z,4.40
2022-10-19T06:43:21.562Z,4.50
2022-10-19T06:47:33.627Z,3.60
2022-10-19T06:51:42.200Z,4.30
2022-10-19T06:55:49.794Z,4.40
2022-10-19T06:59:57.457Z,4.00
2022-10-19T07:04:05.469Z,3.60
2022-10-19T07:08:23.000Z,3.60
2022-10-19T07:12:32.122Z,3.70
2022-10-19T07:16:39.624Z,3.80
2022-10-19T07:20:57.582Z,2.90
2022-10-19T07:25:05.828Z,2.90
2022-10-19T07:29:13.697Z,2.60
2022-10-19T07:33:25.900Z,2.70
2022-10-19T07:37:34.889Z,2.30
2022-10-19T07:41:43.830Z,2.10
2022-10-19T07:45:51.512Z,2.60
2022-10-19T07:49:59.196Z,2.30
2022-10-19T07:54:07.491Z,2.10
2022-10-19T07:58:16.214Z,2.20
2022-10-19T08:02:30.819Z,2.10
2022-10-19T08:06:47.929Z,2.20
2022-10-19T08:10:55.720Z,2.50
2022-10-19T08:15:03.538Z,2.20
2022-10-19T08:19:17.519Z,2.50
2022-10-19T08:23:28.264Z,2.20
2022-10-19T08:27:40.187Z,1.70
2022-10-19T08:31:49.515Z,2.20
2022-10-19T08:35:57.046Z,1.80
2022-10-19T08:40:05.100Z,1.70
2022-10-19T08:44:29.090Z,1.40
2022-10-19T08:48:39.661Z,1.80
2022-10-19T08:52:51.919Z,1.80
2022-10-19T08:57:07.483Z,1.80
2022-10-19T09:01:21.332Z,1.70
2022-10-19T09:05:37.418Z,2.00
2022-10-19T09:09:51.002Z,1.90
2022-10-19T09:14:06.060Z,1.90
2022-10-19T09:18:16.581Z,1.90
2022-10-19T09:22:29.497Z,1.80
2022-10-19T09:26:48.351Z,1.60
2022-10-19T09:30:57.374Z,2.00
2022-10-19T09:35:06.588Z,1.80
2022-10-19T09:39:16.169Z,2.00
2022-10-19T09:43:25.649Z,1.80
2022-10-19T09:47:37.855Z,2.20
2022-10-19T09:51:51.946Z,2.20
2022-10-19T09:56:04.778Z,2.00
2022-10-19T10:00:20.846Z,2.40
2022-10-19T10:04:30.455Z,2.00
2022-10-19T10:08:41.951Z,2.00
2022-10-19T10:12:51.741Z,2.10
2022-10-19T10:17:05.070Z,2.10
2022-10-19T10:21:25.439Z,2.80
2022-10-19T10:25:36.591Z,2.50
2022-10-19T10:29:58.002Z,2.00
2022-10-19T10:34:16.582Z,2.60
2022-10-19T10:38:37.467Z,2.50
2022-10-19T10:42:47.400Z,2.50
2022-10-19T10:46:57.451Z,2.40
2022-10-19T10:51:07.176Z,2.10
2022-10-19T10:55:21.103Z,1.70
2022-10-19T10:59:32.260Z,1.60
2022-10-19T11:03:41.273Z,1.70
2022-10-19T11:07:52.192Z,1.50
2022-10-19T11:12:01.419Z,1.70
2022-10-19T11:16:15.237Z,1.30
2022-10-19T11:20:25.583Z,1.30
2022-10-19T11:24:43.876Z,1.30
2022-10-19T11:29:04.311Z,1.30
2022-10-19T11:33:21.526Z,1.10
2022-10-19T11:37:32.263Z,1.20
2022-10-19T11:41:46.988Z,1.20
2022-10-19T11:46:04.084Z,1.20
2022-10-19T11:50:31.088Z,1.60
2022-10-19T11:54:50.367Z,1.20
2022-10-19T11:59:03.239Z,1.20
2022-10-19T12:03:43.493Z,1.40
2022-10-19T12:08:03.003Z,1.10
2022-10-19T12:12:21.407Z,1.40
2022-10-19T12:16:39.022Z,1.50
2022-10-19T12:20:49.329Z,1.70
2022-10-19T12:24:58.989Z,1.40
2022-10-19T12:29:16.613Z,1.80
2022-10-19T12:33:27.827Z,1.40
2022-10-19T12:37:41.355Z,1.50
2022-10-19T12:41:53.471Z,1.30
2022-10-19T12:46:12.769Z,1.30
2022-10-19T12:50:58.383Z,1.30
2022-10-19T12:55:25.227Z,1.00
2022-10-19T12:59:35.260Z,1.20
2022-10-19T13:03:45.272Z,1.00
2022-10-19T13:07:54.501Z,1.10
2022-10-19T13:12:44.274Z,1.30
2022-10-19T13:17:06.516Z,1.20
2022-10-19T13:21:14.453Z,1.30
2022-10-19T13:25:29.749Z,1.20
2022-10-19T13:29:45.034Z,1.40
2022-10-19T13:33:57.373Z,1.30
2022-10-19T13:38:28.334Z,1.30
2022-10-19T13:42:36.292Z,1.30
2022-10-19T13:46:52.701Z,1.40
2022-10-19T13:51:02.981Z,1.40
2022-10-19T13:55:49.559Z,1.50
2022-10-19T14:00:07.805Z,1.30
2022-10-19T14:04:25.650Z,1.50
2022-10-19T14:08:51.378Z,1.50
2022-10-19T14:12:59.952Z,2.00
2022-10-19T14:21:37.011Z,2.40
2022-10-19T14:25:53.111Z,1.90
2022-10-19T14:30:00.846Z,2.10
2022-10-19T14:34:11.732Z,2.00
2022-10-19T14:38:22.773Z,2.30
2022-10-19T14:42:39.679Z,2.20
2022-10-19T14:46:50.340Z,2.60
2022-10-19T14:50:59.971Z,2.20
2022-10-19T14:55:14.088Z,2.20
2022-10-19T14:59:28.660Z,2.40
2022-10-19T15:03:40.216Z,2.10
2022-10-19T15:07:51.416Z,2.40
2022-10-19T15:12:02.682Z,2.20
2022-10-19T15:16:31.929Z,1.90
2022-10-19T15:20:54.964Z,3.00
2022-10-19T15:25:32.890Z,1.80
2022-10-19T15:29:42.063Z,2.00
2022-10-19T15:33:56.246Z,2.50
2022-10-19T15:38:08.577Z,1.60
2022-10-19T15:42:44.546Z,1.50
2022-10-19T15:47:19.847Z,2.00
2022-10-19T15:51:49.978Z,1.80
2022-10-19T15:55:57.768Z,2.20
2022-10-19T16:00:12.582Z,2.10
2022-10-19T16:04:20.119Z,2.00
2022-10-19T16:08:27.669Z,1.50
2022-10-19T16:12:35.694Z,1.90
2022-10-19T16:16:43.701Z,1.90
2022-10-19T16:20:51.994Z,1.80
2022-10-19T16:25:01.125Z,2.10
2022-10-19T16:29:08.828Z,2.20
2022-10-19T16:33:18.185Z,2.20
2022-10-19T16:37:27.808Z,2.20
2022-10-19T16:41:35.780Z,1.90
2022-10-19T16:45:46.965Z,2.20
2022-10-19T16:50:01.280Z,2.80
2022-10-19T16:54:11.952Z,2.50
2022-10-19T16:58:19.772Z,2.70
2022-10-19T17:02:27.636Z,2.80
2022-10-19T17:06:36.116Z,3.10
2022-10-19T17:10:44.173Z,3.00
2022-10-19T17:14:52.188Z,3.50
2022-10-19T17:19:00.633Z,4.90
2022-10-19T17:23:08.561Z,4.10
2022-10-19T17:27:16.498Z,3.40
2022-10-19T17:31:24.956Z,3.00
2022-10-19T17:35:33.077Z,3.70
2022-10-19T17:39:41.167Z,3.50
2022-10-19T17:43:52.037Z,3.20
2022-10-19T17:48:01.130Z,3.20
2022-10-19T17:52:09.549Z,3.60
2022-10-19T17:56:19.288Z,3.50
2022-10-19T18:00:27.121Z,3.70
2022-10-19T18:08:45.585Z,4.50
2022-10-19T18:12:53.835Z,4.10
2022-10-19T18:17:02.703Z,5.10
2022-10-19T18:21:13.279Z,4.00
2022-10-19T18:25:25.844Z,4.90
2022-10-19T18:29:39.353Z,6.70
2022-10-19T18:33:50.856Z,4.90
2022-10-19T18:37:58.571Z,6.90
2022-10-19T18:42:07.089Z,7.20
2022-10-19T18:46:16.236Z,10.10
2022-10-19T18:50:28.578Z,12.20
2022-10-19T18:54:41.357Z,7.70
2022-10-19T18:58:56.590Z,5.50
2022-10-19T19:03:07.453Z,7.30
2022-10-19T19:07:19.637Z,8.00
2022-10-19T19:11:33.104Z,10.10
2022-10-19T19:15:45.328Z,10.30
2022-10-19T19:19:53.112Z,9.00
2022-10-19T19:24:02.692Z,7.40
2022-10-19T19:28:12.890Z,7.30
2022-10-19T19:32:21.221Z,6.60
2022-10-19T19:36:28.652Z,6.30
2022-10-19T19:40:39.606Z,6.70
2022-10-19T19:44:47.569Z,7.80
2022-10-19T19:49:02.959Z,7.00
2022-10-19T19:53:11.192Z,6.30
2022-10-19T19:57:18.871Z,6.80
2022-10-19T20:01:27.436Z,8.20
2022-10-19T20:05:36.047Z,6.40
2022-10-19T20:09:44.278Z,5.60
2022-10-19T20:13:52.463Z,6.00
2022-10-19T20:18:00.561Z,6.60
2022-10-19T20:22:08.064Z,7.80
2022-10-19T20:26:19.836Z,7.70
2022-10-19T20:30:27.702Z,7.80
2022-10-19T20:34:37.967Z,7.00
2022-10-19T20:38:49.188Z,6.90
2022-10-19T20:42:57.714Z,7.00
2022-10-19T20:47:05.211Z,6.50
2022-10-19T20:51:15.838Z,6.70
2022-10-19T20:55:23.373Z,6.60
2022-10-19T20:59:33.749Z,7.60
2022-10-19T21:03:42.695Z,7.70
2022-10-19T21:07:50.816Z,6.90
2022-10-19T21:11:58.538Z,7.60
2022-10-19T21:16:13.483Z,6.90
2022-10-19T21:20:20.940Z,7.40
2022-10-19T21:24:32.334Z,7.00
2022-10-19T21:28:41.662Z,7.40
2022-10-19T21:32:50.969Z,7.30
2022-10-19T21:36:59.383Z,7.70
2022-10-19T21:41:09.725Z,8.70
2022-10-19T21:45:29.994Z,6.80
2022-10-19T21:49:38.660Z,7.70
2022-10-19T21:53:47.182Z,7.40
2022-10-19T21:57:54.761Z,6.60
2022-10-19T22:02:02.599Z,6.90
2022-10-19T22:06:10.453Z,8.00
2022-10-19T22:10:18.752Z,7.60
2022-10-19T22:14:26.674Z,7.80
2022-10-19T22:18:34.599Z,7.50
2022-10-19T22:22:43.080Z,7.00
2022-10-19T22:26:51.945Z,6.70
2022-10-19T22:31:00.725Z,7.50
2022-10-19T22:35:09.640Z,7.30
2022-10-19T22:39:18.023Z,6.90
2022-10-19T22:43:25.424Z,7.00
2022-10-19T22:47:32.726Z,6.40
2022-10-19T22:51:40.393Z,6.90
2022-10-19T22:55:47.905Z,7.00
2022-10-19T22:59:55.625Z,6.90
2022-10-19T23:04:03.282Z,6.40
2022-10-19T23:08:10.976Z,7.20
2022-10-19T23:12:18.353Z,6.50
2022-10-19T23:20:38.392Z,7.10
2022-10-19T23:24:45.977Z,7.30
2022-10-19T23:28:53.848Z,6.20
2022-10-19T23:33:01.423Z,7.50
2022-10-19T23:37:09.037Z,8.50
2022-10-19T23:41:17.413Z,8.00
2022-10-19T23:45:25.175Z,8.80
2022-10-19T23:49:33.389Z,9.40
2022-10-19T23:53:43.170Z,10.10
2022-10-19T23:57:51.338Z,10.20
